Time;durP1;ratioP1;P1;durP2;ratioP2;P2;SDS_P1;SDS_P2;PMS_P1;PMS_P2;Temp;Humidity;BMP_temperature;BMP_pressure;BME280_temperature;BME280_humidity;BME280_pressure;Samples;Min_cycle;Max_cycle;Signal;HPM_P1;HPM_P2
2023/10/11 00:00:37;;;;;;;;;5.33;5.00;;;;;22.48;45.36;100928.59;110072;1265;18845;-38
2023/10/11 00:03:32;;;;;;;;;4.00;4.00;;;;;22.49;45.32;100926.35;110189;1265;21293;-39
2023/10/11 00:06:00;;;;;;;;;4.00;4.00;;;;;22.50;45.06;100922.14;110199;1265;17907;-38
2023/10/11 00:08:29;;;;;;;;;5.50;5.00;;;;;22.49;45.18;100920.08;110230;1251;20080;-40
2023/10/11 00:10:58;;;;;;;;;4.00;4.00;;;;;22.50;44.89;100914.40;110186;1265;20139;-39
2023/10/11 00:13:25;;;;;;;;;5.00;5.00;;;;;22.49;45.12;100906.48;110242;1265;17917;-39
2023/10/11 00:15:53;;;;;;;;;4.50;4.00;;;;;22.50;44.99;100902.59;110198;1265;19046;-39
2023/10/11 00:18:21;;;;;;;;;4.50;4.00;;;;;22.50;45.16;100899.98;110188;1251;20052;-39
2023/10/11 00:20:50;;;;;;;;;4.00;4.00;;;;;22.50;44.78;100897.63;110178;1265;19269;-39
2023/10/11 00:23:18;;;;;;;;;5.00;5.00;;;;;22.49;44.98;100894.41;110169;1251;20173;-41
2023/10/11 00:25:45;;;;;;;;;5.00;4.00;;;;;22.50;45.21;100890.86;110180;1265;18272;-38
2023/10/11 00:28:14;;;;;;;;;4.00;4.00;;;;;22.51;44.94;100888.02;110193;1265;17886;-39
2023/10/11 00:30:46;;;;;;;;;4.00;4.00;;;;;22.48;45.00;100880.33;110208;1250;22659;-38
2023/10/11 00:33:14;;;;;;;;;5.00;4.00;;;;;22.49;44.80;100874.39;110180;1250;19578;-39
2023/10/11 00:35:42;;;;;;;;;4.33;4.33;;;;;22.48;45.00;100876.08;110158;1265;22770;-39
2023/10/11 00:38:18;;;;;;;;;4.00;4.00;;;;;22.49;44.85;100880.23;110184;1251;20836;-41
2023/10/11 00:40:45;;;;;;;;;4.00;4.00;;;;;22.48;44.84;100880.23;110176;1265;18473;-40
2023/10/11 00:43:13;;;;;;;;;5.00;4.00;;;;;22.47;44.96;100883.28;110183;1265;18781;-39
2023/10/11 00:45:41;;;;;;;;;4.00;4.00;;;;;22.50;44.94;100875.20;110173;1253;21998;-39
2023/10/11 00:48:11;;;;;;;;;4.00;4.00;;;;;22.48;44.91;100876.13;110192;1266;18451;-39
2023/10/11 00:50:38;;;;;;;;;4.00;4.00;;;;;22.49;44.87;100864.99;110186;1250;20109;-39
2023/10/11 00:53:09;;;;;;;;;4.00;4.00;;;;;22.49;44.94;100868.38;110195;1251;20782;-39
2023/10/11 00:55:36;;;;;;;;;4.00;4.00;;;;;22.47;44.68;100858.50;110216;1257;18907;-39
2023/10/11 00:58:04;;;;;;;;;5.00;4.00;;;;;22.49;44.94;100857.95;110181;1265;18701;-39
2023/10/11 01:00:36;;;;;;;;;4.00;4.00;;;;;22.45;45.02;100855.39;110196;1250;20828;-38
2023/10/11 01:03:03;;;;;;;;;4.00;4.00;;;;;22.47;45.11;100848.56;110207;1265;18308;-39
2023/10/11 01:05:33;;;;;;;;;4.00;4.00;;;;;22.48;44.93;100846.65;110185;1250;22383;-39
2023/10/11 01:08:00;;;;;;;;;4.00;4.00;;;;;22.47;44.80;100845.23;110195;1265;20676;-39
2023/10/11 01:10:29;;;;;;;;;2.00;2.00;;;;;22.46;44.93;100840.21;110194;1250;19676;-39
2023/10/11 01:12:58;;;;;;;;;4.67;4.67;;;;;22.47;44.81;100835.14;110218;1265;18668;-40
2023/10/11 01:15:26;;;;;;;;;4.00;4.00;;;;;22.46;44.87;100835.14;110192;1259;20736;-39
2023/10/11 01:17:54;;;;;;;;;4.00;4.00;;;;;22.46;44.68;100830.01;110228;1250;19950;-38
2023/10/11 01:20:21;;;;;;;;;4.00;3.00;;;;;22.47;44.98;100829.13;110213;1264;18648;-38
2023/10/11 01:22:48;;;;;;;;;4.00;4.00;;;;;22.45;44.77;100821.00;110230;1264;19263;-39
2023/10/11 01:25:18;;;;;;;;;4.00;4.00;;;;;22.46;44.63;100820.02;110194;1264;22182;-38
2023/10/11 01:27:47;;;;;;;;;4.00;4.00;;;;;22.45;44.66;100819.91;110201;1251;20111;-38
2023/10/11 01:30:14;;;;;;;;;4.00;4.00;;;;;22.46;44.91;100813.57;110200;1251;19472;-38
2023/10/11 01:32:42;;;;;;;;;5.00;5.00;;;;;22.46;44.82;100815.11;110207;1264;18528;-39
2023/10/11 01:35:12;;;;;;;;;5.00;4.00;;;;;22.46;44.72;100814.23;110198;1264;18656;-38
2023/10/11 01:37:43;;;;;;;;;4.00;4.00;;;;;22.46;44.82;100815.20;110203;1259;20592;-40
2023/10/11 01:40:11;;;;;;;;;5.00;4.33;;;;;22.47;44.77;100809.54;110199;1250;19699;-39
2023/10/11 01:42:41;;;;;;;;;4.00;4.00;;;;;22.46;44.91;100807.45;110250;1249;20182;-39
2023/10/11 01:45:09;;;;;;;;;4.00;4.00;;;;;22.47;44.87;100807.95;110217;1251;20823;-39
2023/10/11 01:47:36;;;;;;;;;4.00;4.00;;;;;22.48;44.74;100808.77;110130;1256;23547;-39
2023/10/11 01:50:04;;;;;;;;;5.00;4.00;;;;;22.45;44.80;100805.83;110212;1265;18537;-41
2023/10/11 01:52:34;;;;;;;;;4.00;4.00;;;;;22.45;44.74;100804.95;110125;1250;21965;-40
2023/10/11 01:55:02;;;;;;;;;2.00;2.00;;;;;22.44;44.51;100802.12;110134;1265;18650;-39
2023/10/11 01:57:29;;;;;;;;;4.00;2.00;;;;;22.46;44.67;100802.92;110211;1263;20355;-39
2023/10/11 01:59:56;;;;;;;;;4.00;4.00;;;;;22.47;44.69;100801.29;110155;1265;19411;-39
2023/10/11 02:02:27;;;;;;;;;4.00;4.00;;;;;22.47;44.89;100795.94;110178;1250;18405;-38
2023/10/11 02:04:59;;;;;;;;;4.00;4.00;;;;;22.46;44.55;100792.61;110183;1250;21752;-39
2023/10/11 02:07:26;;;;;;;;;4.00;4.00;;;;;22.46;44.64;100798.40;110182;1259;20655;-39
2023/10/11 02:09:53;;;;;;;;;5.00;4.67;;;;;22.44;44.62;100797.15;110167;1257;18526;-40
2023/10/11 02:12:22;;;;;;;;;2.00;2.00;;;;;22.46;44.76;100793.92;110195;1265;18642;-39
2023/10/11 02:14:50;;;;;;;;;2.00;2.00;;;;;22.47;44.57;100792.65;110182;1250;21913;-38
2023/10/11 02:17:23;;;;;;;;;4.00;4.00;;;;;22.47;44.84;100783.10;110188;1251;19697;-38
2023/10/11 02:19:53;;;;;;;;;4.67;4.00;;;;;22.49;44.46;100777.59;110178;1251;20081;-38
2023/10/11 02:22:22;;;;;;;;;4.00;4.00;;;;;22.48;44.53;100775.02;110099;1251;20739;-38
2023/10/11 02:24:51;;;;;;;;;2.00;2.00;;;;;22.47;44.75;100778.52;110165;1249;20981;-40
2023/10/11 02:27:22;;;;;;;;;5.00;4.00;;;;;22.45;44.62;100774.77;110171;1257;18610;-39
2023/10/11 02:29:50;;;;;;;;;5.00;4.00;;;;;22.43;44.58;100778.11;110175;1251;21000;-39
2023/10/11 02:32:17;;;;;;;;;4.00;4.00;;;;;22.44;44.45;100770.08;110184;1251;18359;-39
2023/10/11 02:34:47;;;;;;;;;4.00;4.00;;;;;22.45;44.71;100764.02;110206;1265;18609;-39
2023/10/11 02:37:16;;;;;;;;;2.00;2.00;;;;;22.44;44.56;100759.54;110176;1252;20654;-39
2023/10/11 02:39:44;;;;;;;;;4.33;4.33;;;;;22.44;44.48;100756.48;110201;1265;18332;-39
2023/10/11 02:42:11;;;;;;;;;4.00;4.00;;;;;22.45;44.78;100758.49;110186;1260;19967;-39
2023/10/11 02:44:40;;;;;;;;;4.00;4.00;;;;;22.45;44.59;100760.24;110181;1251;20953;-39
2023/10/11 02:47:08;;;;;;;;;4.00;4.00;;;;;22.44;44.48;100759.81;110192;1250;20014;-38
2023/10/11 02:49:36;;;;;;;;;5.50;5.00;;;;;22.44;44.52;100754.90;110201;1250;18731;-38
2023/10/11 02:52:06;;;;;;;;;4.00;4.00;;;;;22.45;44.61;100749.38;110165;1250;20710;-39
2023/10/11 02:54:38;;;;;;;;;5.00;4.00;;;;;22.45;44.76;100753.15;110181;1250;20210;-39
2023/10/11 02:57:06;;;;;;;;;2.00;2.00;;;;;22.45;44.71;100752.81;110201;1260;19967;-40
2023/10/11 02:59:34;;;;;;;;;5.00;5.00;;;;;22.44;44.63;100753.64;110188;1251;20732;-38
2023/10/11 03:02:01;;;;;;;;;3.00;3.00;;;;;22.43;44.82;100745.58;110090;1251;19689;-39
2023/10/11 03:04:29;;;;;;;;;4.00;4.00;;;;;22.44;44.70;100743.55;110156;1251;21225;-39
2023/10/11 03:06:56;;;;;;;;;4.00;4.00;;;;;22.44;44.53;100741.26;110118;1265;19345;-40
2023/10/11 03:09:27;;;;;;;;;4.50;4.50;;;;;22.45;44.44;100734.04;110057;1250;18367;-39
2023/10/11 03:11:56;;;;;;;;;5.00;4.00;;;;;22.45;44.73;100733.89;110188;1257;20263;-39
2023/10/11 03:14:23;;;;;;;;;4.00;4.00;;;;;22.44;44.62;100728.16;110171;1251;22770;-38
2023/10/11 03:16:56;;;;;;;;;4.00;4.00;;;;;22.45;44.49;100727.44;110191;1253;22124;-39
2023/10/11 03:19:24;;;;;;;;;5.00;4.00;;;;;22.44;44.49;100722.48;110194;1253;20124;-38
2023/10/11 03:21:54;;;;;;;;;5.00;5.00;;;;;22.45;44.62;100717.77;110166;1265;19328;-39
2023/10/11 03:24:21;;;;;;;;;4.00;4.00;;;;;22.45;44.42;100717.02;110181;1250;19694;-39
2023/10/11 03:26:51;;;;;;;;;5.00;5.00;;;;;22.45;44.58;100708.22;110175;1250;20070;-39
2023/10/11 03:29:21;;;;;;;;;4.00;4.00;;;;;22.43;44.65;100703.86;110196;1251;20734;-39
2023/10/11 03:31:48;;;;;;;;;4.00;4.00;;;;;22.45;44.49;100696.42;110212;1259;19559;-39
2023/10/11 03:34:17;;;;;;;;;4.00;4.00;;;;;22.47;44.43;100692.10;110181;1251;22232;-40
2023/10/11 03:36:49;;;;;;;;;4.00;4.00;;;;;22.44;44.60;100687.10;110194;1265;19293;-39
2023/10/11 03:39:26;;;;;;;;;4.00;4.00;;;;;22.43;44.43;100685.04;110213;1250;19712;-39
2023/10/11 03:42:07;;;;;;;;;4.67;4.67;;;;;22.44;44.57;100683.88;110185;1257;20005;-38
2023/10/11 03:44:36;;;;;;;;;4.00;4.00;;;;;22.44;44.45;100680.88;110173;1250;20688;-38
2023/10/11 03:47:06;;;;;;;;;5.00;5.00;;;;;22.44;44.66;100672.52;110076;1265;20662;-38
2023/10/11 03:49:47;;;;;;;;;5.50;4.00;;;;;22.41;44.57;100673.04;110150;1265;20031;-40
2023/10/11 03:52:19;;;;;;;;;6.00;6.00;;;;;22.42;44.50;100674.84;110192;1253;20655;-39
2023/10/11 03:54:47;;;;;;;;;5.00;5.00;;;;;22.43;44.77;100683.02;110205;1265;18603;-38
2023/10/11 03:57:17;;;;;;;;;4.00;4.00;;;;;22.44;44.53;100686.88;110176;1250;20086;-38
2023/10/11 03:59:48;;;;;;;;;5.00;5.00;;;;;22.41;44.63;100681.44;110186;1251;22033;-40
2023/10/11 04:02:17;;;;;;;;;6.00;5.00;;;;;22.42;44.45;100674.01;110187;1259;19672;-39
2023/10/11 04:04:48;;;;;;;;;5.00;5.00;;;;;22.44;44.37;100667.35;110225;1251;20056;-39
2023/10/11 04:07:16;;;;;;;;;5.00;5.00;;;;;22.45;44.48;100657.23;110220;1251;20704;-38
2023/10/11 04:09:46;;;;;;;;;5.00;5.00;;;;;22.43;44.58;100651.73;110182;1253;19725;-40
2023/10/11 04:12:14;;;;;;;;;6.00;6.00;;;;;22.45;44.52;100648.51;110216;1265;18626;-39
2023/10/11 04:14:43;;;;;;;;;6.00;5.00;;;;;22.45;44.61;100640.37;110111;1265;20689;-39
2023/10/11 04:17:14;;;;;;;;;6.00;6.00;;;;;22.46;44.50;100642.59;110097;1265;22875;-39
2023/10/11 04:19:43;;;;;;;;;5.00;5.00;;;;;22.44;44.58;100637.98;110237;1250;18537;-39
2023/10/11 04:22:18;;;;;;;;;5.50;5.00;;;;;22.43;44.49;100636.72;110225;1251;20730;-39
2023/10/11 04:24:48;;;;;;;;;7.50;6.00;;;;;22.45;44.60;100633.00;110200;1260;19572;-39
2023/10/11 04:30:17;;;;;;;;;5.00;5.00;;;;;22.43;44.51;100629.02;110187;1251;21890;-39
2023/10/11 04:32:46;;;;;;;;;7.00;7.00;;;;;22.43;44.36;100621.98;110101;1259;19678;-38
2023/10/11 04:35:21;;;;;;;;;8.00;6.00;;;;;22.44;44.56;100614.88;110194;1260;19922;-39
2023/10/11 04:37:54;;;;;;;;;5.50;5.00;;;;;22.44;44.36;100607.45;110155;1251;20910;-37
2023/10/11 04:40:23;;;;;;;;;5.50;5.50;;;;;22.44;44.60;100607.40;110174;1251;21713;-40
2023/10/11 04:43:04;;;;;;;;;6.00;5.00;;;;;22.46;44.81;100602.75;110157;1265;18608;-39
2023/10/11 04:45:31;;;;;;;;;5.00;5.00;;;;;22.44;45.23;100606.14;110106;1251;20764;-40
2023/10/11 04:47:59;;;;;;;;;6.00;5.00;;;;;22.42;46.04;100605.57;110183;1265;19545;-39
2023/10/11 04:50:30;;;;;;;;;8.00;8.00;;;;;22.41;46.48;100603.98;110206;1251;20066;-38
2023/10/11 04:52:58;;;;;;;;;8.33;8.33;;;;;22.42;46.58;100605.77;110182;1251;20777;-40
2023/10/11 04:55:34;;;;;;;;;10.00;9.00;;;;;22.47;47.29;100609.13;110170;1251;19615;-40
2023/10/11 04:58:07;;;;;;;;;8.00;8.00;;;;;22.46;47.79;100610.99;110174;1249;18653;-39
2023/10/11 05:00:44;;;;;;;;;12.00;12.00;;;;;22.49;47.55;100605.35;110196;1265;19342;-39
2023/10/11 05:03:12;;;;;;;;;13.00;12.00;;;;;22.47;47.12;100607.81;110158;1253;19662;-39
2023/10/11 05:05:58;;;;;;;;;9.00;9.00;;;;;22.45;47.53;100605.81;110159;1265;20395;-39
2023/10/11 05:08:50;;;;;;;;;9.00;9.00;;;;;22.48;47.86;100598.86;110205;1259;20855;-39
2023/10/11 05:11:19;;;;;;;;;6.00;5.00;;;;;22.48;47.62;100601.53;110180;1265;22195;-39
2023/10/11 05:13:59;;;;;;;;;9.00;8.00;;;;;22.50;47.82;100598.73;110198;1251;21008;-38
2023/10/11 05:16:29;;;;;;;;;10.00;9.00;;;;;22.51;47.64;100601.17;110211;1251;20866;-39
2023/10/11 05:19:04;;;;;;;;;9.00;8.50;;;;;22.48;47.49;100600.00;110212;1258;19538;-40
2023/10/11 05:21:38;;;;;;;;;8.00;6.00;;;;;22.49;47.43;100593.93;110264;1251;20092;-39
2023/10/11 05:24:14;;;;;;;;;6.00;6.00;;;;;22.49;47.73;100587.77;110228;1259;20634;-39
2023/10/11 05:26:47;;;;;;;;;8.33;6.00;;;;;22.48;47.87;100589.30;110189;1250;19695;-39
2023/10/11 05:29:31;;;;;;;;;8.50;7.00;;;;;22.51;47.87;100583.66;110212;1253;20094;-39
2023/10/11 05:32:20;;;;;;;;;6.00;6.00;;;;;22.54;48.46;100581.17;110193;1251;20803;-38
2023/10/11 05:34:51;;;;;;;;;8.00;8.00;;;;;22.58;48.50;100582.34;110227;1251;19719;-38
2023/10/11 05:51:03;;;;;;;;;8.00;8.00;;;;;22.53;47.68;100556.56;110276;1250;19708;-40
2023/10/11 05:53:30;;;;;;;;;8.00;7.00;;;;;22.52;47.83;100550.13;110213;1264;18633;-38
2023/10/11 05:55:58;;;;;;;;;5.50;5.50;;;;;22.52;47.79;100548.05;110210;1256;20549;-38
2023/10/11 05:58:25;;;;;;;;;6.00;6.00;;;;;22.54;47.76;100547.65;110203;1264;21940;-39
2023/10/11 06:00:54;;;;;;;;;5.50;5.50;;;;;22.51;47.88;100553.35;110252;1259;19930;-38
2023/10/11 06:03:23;;;;;;;;;11.00;8.00;;;;;22.53;47.67;100556.61;110243;1251;20828;-39
2023/10/11 06:05:51;;;;;;;;;5.50;5.00;;;;;22.51;48.15;100556.30;110211;1251;22745;-38
2023/10/11 06:08:18;;;;;;;;;6.00;6.00;;;;;22.53;47.71;100555.19;110167;1259;20206;-39
2023/10/11 06:10:46;;;;;;;;;8.50;7.00;;;;;22.54;47.99;100558.24;110153;1265;20763;-39
2023/10/11 06:13:14;;;;;;;;;6.00;6.00;;;;;22.53;48.27;100557.44;110193;1261;19067;-39
2023/10/11 06:15:41;;;;;;;;;6.00;6.00;;;;;22.51;47.99;100551.27;110157;1265;18816;-38
2023/10/11 06:18:35;;;;;;;;;8.00;6.00;;;;;22.52;47.94;100554.05;110154;1260;20666;-39
2023/10/11 06:21:05;;;;;;;;;9.00;8.00;;;;;22.53;47.86;100554.21;110158;1253;20797;-39
2023/10/11 06:23:32;;;;;;;;;8.00;8.00;;;;;22.51;47.65;100548.39;110158;1250;20016;-39
2023/10/11 06:26:20;;;;;;;;;9.00;6.00;;;;;22.51;47.86;100545.33;110196;1251;20615;-40
2023/10/11 06:29:02;;;;;;;;;6.00;6.00;;;;;22.55;47.43;100545.95;110200;1259;19495;-39
2023/10/11 06:31:33;;;;;;;;;5.00;4.00;;;;;22.54;47.67;100541.38;110155;1250;18627;-39
2023/10/11 06:34:03;;;;;;;;;8.00;6.00;;;;;22.51;47.69;100544.18;110178;1252;20926;-39
2023/10/11 06:36:35;;;;;;;;;5.50;5.00;;;;;22.53;47.68;100536.90;110185;1250;19077;-39
2023/10/11 06:39:19;;;;;;;;;6.00;5.00;;;;;22.53;47.44;100534.89;110180;1265;19980;-39
2023/10/11 06:41:50;;;;;;;;;6.00;6.00;;;;;22.53;47.40;100536.09;110156;1265;19341;-38
2023/10/11 06:44:19;;;;;;;;;5.00;5.00;;;;;22.52;47.34;100534.73;110167;1251;19705;-38
2023/10/11 06:46:50;;;;;;;;;5.33;5.33;;;;;22.52;47.44;100529.86;110198;1260;20062;-39
2023/10/11 06:49:19;;;;;;;;;5.00;5.00;;;;;22.52;47.42;100523.48;109828;1250;467040;-39
2023/10/11 06:51:46;;;;;;;;;8.00;8.00;;;;;22.53;47.58;100533.03;110179;1266;18706;-39
2023/10/11 06:54:15;;;;;;;;;5.00;5.00;;;;;22.53;47.34;100535.00;110168;1251;19956;-39
2023/10/11 06:56:43;;;;;;;;;7.33;5.67;;;;;22.51;47.18;100532.02;110191;1250;20688;-39
2023/10/11 06:59:14;;;;;;;;;4.00;4.00;;;;;22.52;47.15;100530.52;110178;1251;19725;-38
2023/10/11 07:01:41;;;;;;;;;5.00;5.00;;;;;22.52;47.28;100534.40;110162;1265;18772;-38
2023/10/11 07:04:09;;;;;;;;;4.00;4.00;;;;;22.55;47.15;100546.06;110186;1259;19349;-38
2023/10/11 07:06:36;;;;;;;;;5.00;5.00;;;;;22.57;46.91;100541.29;110186;1265;20698;-40
2023/10/11 07:09:05;;;;;;;;;11.00;9.00;;;;;22.53;47.17;100537.99;110159;1251;20129;-39
2023/10/11 07:11:43;;;;;;;;;13.00;11.00;;;;;22.53;47.28;100536.73;110211;1265;19283;-39
2023/10/11 07:14:15;;;;;;;;;11.00;11.00;;;;;22.52;47.33;100527.85;110188;1250;22636;-39
2023/10/11 07:16:42;;;;;;;;;12.00;11.00;;;;;22.45;47.68;100527.20;110178;1250;20106;-38
2023/10/11 07:19:11;;;;;;;;;12.00;11.00;;;;;22.43;47.89;100522.70;110193;1265;19301;-39
2023/10/11 07:24:33;;;;;;;;;12.00;9.00;;;;;22.44;48.01;100508.98;110160;1253;20244;-39
2023/10/11 07:27:08;;;;;;;;;8.00;8.00;;;;;22.45;48.15;100509.90;110203;1265;19403;-39
2023/10/11 07:29:36;;;;;;;;;9.00;8.00;;;;;22.45;48.23;100506.79;110185;1265;18635;-38
2023/10/11 07:32:03;;;;;;;;;14.00;12.00;;;;;22.46;48.21;100500.45;110178;1265;18662;-38
2023/10/11 07:34:31;;;;;;;;;11.50;11.50;;;;;22.48;48.17;100499.45;110107;1251;20812;-38
2023/10/11 07:37:03;;;;;;;;;13.00;12.00;;;;;22.51;47.96;100498.60;110054;1266;18586;-38
2023/10/11 07:39:33;;;;;;;;;12.00;9.00;;;;;22.53;48.02;100498.52;110049;1250;18664;-38
2023/10/11 07:42:06;;;;;;;;;13.00;12.00;;;;;22.51;48.09;100500.13;110187;1265;19236;-38
2023/10/11 07:44:36;;;;;;;;;65.00;48.50;;;;;22.51;48.52;100507.55;110183;1250;18641;-39
2023/10/11 07:47:06;;;;;;;;;87.00;62.00;;;;;22.53;48.43;100508.19;110140;1251;20230;-40
2023/10/11 07:49:38;;;;;;;;;;;;;;;22.52;49.61;100510.71;110174;1250;21076;-39
2023/10/11 07:52:08;;;;;;;;;82.00;58.00;;;;;22.41;49.94;100510.65;110191;1251;20032;-39
2023/10/11 07:54:38;;;;;;;;;67.00;52.00;;;;;22.46;49.59;100501.60;110216;1258;20044;-39
2023/10/11 07:57:13;;;;;;;;;80.00;60.00;;;;;22.41;49.44;100489.74;110136;1250;20782;-38
2023/10/11 07:59:40;;;;;;;;;72.50;56.00;;;;;22.44;49.66;100486.65;110150;1265;18641;-39
2023/10/11 08:02:26;;;;;;;;;47.50;41.00;;;;;22.45;49.95;100475.85;110182;1265;19590;-39
2023/10/11 08:04:53;;;;;;;;;37.00;31.00;;;;;22.45;49.82;100475.36;110188;1260;20816;-39
2023/10/11 08:07:22;;;;;;;;;36.00;30.50;;;;;22.25;50.17;100467.36;110163;1251;20041;-39
2023/10/11 08:09:52;;;;;;;;;26.50;23.00;;;;;22.29;50.32;100468.58;110148;1250;20128;-39
2023/10/11 08:12:21;;;;;;;;;28.50;23.50;;;;;22.35;50.02;100468.30;110181;1250;20752;-39
2023/10/11 08:14:49;;;;;;;;;29.50;23.50;;;;;22.36;50.19;100470.20;110197;1266;18602;-38
2023/10/11 08:17:16;;;;;;;;;21.00;19.00;;;;;22.29;50.54;100462.02;110155;1265;19258;-38
2023/10/11 08:19:44;;;;;;;;;19.50;18.00;;;;;22.38;50.12;100457.02;110182;1265;21981;-39
2023/10/11 08:22:14;;;;;;;;;18.00;16.00;;;;;22.37;50.48;100457.03;110179;1265;18963;-39
2023/10/11 08:24:46;;;;;;;;;20.00;19.00;;;;;22.37;50.23;100452.56;110183;1251;20896;-39
2023/10/11 08:27:19;;;;;;;;;17.00;16.00;;;;;22.36;50.45;100452.19;110214;1251;20779;-39
2023/10/11 08:29:52;;;;;;;;;24.00;21.50;;;;;22.32;50.34;100444.59;110173;1265;18637;-38
2023/10/11 08:32:25;;;;;;;;;19.67;18.00;;;;;22.27;50.58;100438.68;110198;1251;20195;-39
2023/10/11 08:34:52;;;;;;;;;16.00;15.00;;;;;22.29;50.46;100432.66;110224;1265;19368;-40
2023/10/11 08:37:20;;;;;;;;;16.50;15.50;;;;;22.27;50.53;100429.30;110187;1250;20087;-38
2023/10/11 08:39:47;;;;;;;;;15.00;12.00;;;;;22.31;50.53;100427.08;110183;1251;20234;-39
2023/10/11 08:42:16;;;;;;;;;18.00;15.00;;;;;22.35;50.36;100422.02;110191;1251;20967;-39
2023/10/11 08:44:45;;;;;;;;;20.00;19.00;;;;;22.32;50.41;100420.68;110203;1251;22271;-37
2023/10/11 08:47:13;;;;;;;;;13.00;12.00;;;;;22.31;50.30;100420.09;110213;1265;18732;-39
2023/10/11 08:49:48;;;;;;;;;20.00;17.33;;;;;22.31;50.39;100417.30;110180;1250;20830;-39
2023/10/11 08:52:15;;;;;;;;;15.50;15.50;;;;;22.28;50.15;100412.27;110222;1251;20093;-38
2023/10/11 08:54:45;;;;;;;;;12.00;12.00;;;;;22.31;50.40;100407.33;110178;1251;20169;-38
2023/10/11 08:57:13;;;;;;;;;16.00;15.00;;;;;22.31;50.07;100407.92;110213;1260;21841;-38
2023/10/11 08:59:44;;;;;;;;;13.00;13.00;;;;;22.31;50.19;100406.50;110177;1265;18560;-39
2023/10/11 09:02:12;;;;;;;;;11.50;11.50;;;;;22.31;50.25;100402.04;110191;1257;18701;-39
2023/10/11 09:04:39;;;;;;;;;16.00;15.00;;;;;22.29;50.05;100396.86;110211;1265;22259;-39
2023/10/11 09:07:12;;;;;;;;;14.00;13.33;;;;;22.33;49.82;100397.31;110196;1250;19150;-37
2023/10/11 09:09:41;;;;;;;;;13.50;13.00;;;;;22.29;49.95;100405.42;110140;1264;18746;-37
2023/10/11 09:12:27;;;;;;;;;17.00;15.00;;;;;22.24;50.23;100403.79;110242;1250;20754;-39
2023/10/11 09:14:58;;;;;;;;;15.00;14.00;;;;;22.28;49.83;100405.11;110275;1256;18624;-38
2023/10/11 09:17:25;;;;;;;;;16.00;15.00;;;;;22.25;50.24;100409.45;110280;1264;20064;-38
2023/10/11 09:19:53;;;;;;;;;13.00;12.00;;;;;22.27;50.09;100421.77;110266;1250;20745;-39
2023/10/11 09:22:21;;;;;;;;;15.00;15.00;;;;;22.31;50.24;100426.80;110250;1251;20108;-38
2023/10/11 09:24:48;;;;;;;;;14.00;12.00;;;;;22.29;50.09;100424.86;110221;1251;20079;-39
2023/10/11 09:27:19;;;;;;;;;14.33;14.00;;;;;22.28;50.34;100422.90;110156;1250;19331;-37
2023/10/11 09:29:47;;;;;;;;;16.00;15.00;;;;;22.30;50.22;100422.77;110505;1244;61980;-84
2023/10/11 09:32:19;;;;;;;;;15.00;14.33;;;;;22.30;50.55;100420.64;110011;1253;20293;-81
2023/10/11 09:34:46;;;;;;;;;17.50;15.00;;;;;22.30;50.12;100424.25;110262;1249;20759;-87
2023/10/11 09:37:14;;;;;;;;;15.00;15.00;;;;;22.30;50.09;100417.98;109995;1251;21220;-82
2023/10/11 09:39:41;;;;;;;;;12.00;11.00;;;;;22.30;50.29;100422.23;110138;1264;22021;-81
2023/10/11 09:42:08;;;;;;;;;18.00;18.00;;;;;22.27;50.24;100421.66;110140;1250;22237;-82
2023/10/11 09:44:39;;;;;;;;;14.00;12.00;;;;;22.29;50.25;100413.67;110371;1264;18667;-81
2023/10/11 09:47:07;;;;;;;;;19.00;18.00;;;;;22.24;50.65;100418.35;111080;1256;18802;-88
2023/10/11 09:49:34;;;;;;;;;21.00;18.00;;;;;22.18;50.68;100410.18;110533;1256;20970;-82
2023/10/11 09:52:07;;;;;;;;;19.00;15.50;;;;;22.15;50.73;100400.77;110479;1264;18602;-86
2023/10/11 09:54:37;;;;;;;;;16.00;16.00;;;;;22.21;50.64;100397.27;110224;1248;18707;-86
2023/10/11 09:57:05;;;;;;;;;15.00;15.00;;;;;22.25;50.58;100397.18;110226;1259;20630;-82
2023/10/11 09:59:34;;;;;;;;;14.00;14.00;;;;;22.31;50.51;100393.95;110244;1264;18725;-85
2023/10/11 10:02:03;;;;;;;;;18.00;16.00;;;;;22.30;50.44;100394.06;110533;1264;18715;-82
2023/10/11 10:04:31;;;;;;;;;12.50;12.50;;;;;22.33;50.34;100393.60;110262;1249;22689;-83
2023/10/11 10:06:58;;;;;;;;;13.00;13.00;;;;;22.30;50.20;100381.95;110353;1250;23002;-84
2023/10/11 10:09:26;;;;;;;;;15.50;15.00;;;;;22.27;50.43;100379.26;111401;1256;20469;-84
2023/10/11 10:11:54;;;;;;;;;12.00;12.00;;;;;22.29;50.42;100374.48;111243;1249;19217;-83
2023/10/11 10:14:23;;;;;;;;;16.00;15.00;;;;;22.23;50.43;100372.85;110246;1259;18603;-84
2023/10/11 10:16:50;;;;;;;;;13.00;13.00;;;;;22.34;50.64;100373.08;110211;1265;18768;-82
2023/10/11 10:19:18;;;;;;;;;14.50;13.00;;;;;22.38;50.40;100378.43;110069;1251;20939;-81
2023/10/11 10:21:45;;;;;;;;;18.00;15.00;;;;;22.41;50.55;100380.70;110257;1265;18690;-85
2023/10/11 10:24:12;;;;;;;;;16.00;15.00;;;;;22.41;50.51;100380.15;110088;1259;20066;-85
2023/10/11 10:26:41;;;;;;;;;17.00;14.00;;;;;22.40;50.54;100382.52;110202;1265;20691;-85
2023/10/11 10:29:11;;;;;;;;;14.00;14.00;;;;;22.38;50.40;100382.91;110306;1249;19993;-88
2023/10/11 10:31:39;;;;;;;;;17.50;16.00;;;;;22.39;50.64;100380.98;110237;1265;18701;-82
2023/10/11 10:34:07;;;;;;;;;15.00;14.00;;;;;22.37;50.62;100386.58;110056;1265;20452;-84
2023/10/11 10:36:34;;;;;;;;;17.00;14.00;;;;;22.39;50.99;100386.40;110260;1265;18642;-85
2023/10/11 10:39:03;;;;;;;;;18.50;18.00;;;;;22.40;51.11;100388.52;110275;1265;18633;-82
2023/10/11 10:41:31;;;;;;;;;19.00;15.00;;;;;22.34;51.02;100379.85;110291;1265;19349;-83
2023/10/11 10:43:59;;;;;;;;;15.00;14.67;;;;;22.33;50.88;100381.15;110235;1250;18602;-82
2023/10/11 10:46:26;;;;;;;;;14.00;12.00;;;;;22.34;50.86;100381.74;110271;1253;20271;-84
2023/10/11 10:48:55;;;;;;;;;13.00;13.00;;;;;22.32;51.13;100374.52;110236;1265;22154;-80
2023/10/11 10:51:25;;;;;;;;;12.00;11.00;;;;;22.34;50.80;100378.53;110209;1265;18571;-80
2023/10/11 10:53:53;;;;;;;;;15.00;13.00;;;;;22.30;51.11;100370.55;110204;1250;20127;-79
2023/10/11 10:56:20;;;;;;;;;14.33;14.00;;;;;22.31;51.03;100363.93;110023;1265;19364;-79
2023/10/11 10:58:48;;;;;;;;;15.00;15.00;;;;;22.35;50.86;100359.31;110193;1264;19908;-84
2023/10/11 11:01:21;;;;;;;;;15.00;13.50;;;;;22.34;50.63;100354.69;110232;1265;21901;-79
2023/10/11 11:03:48;;;;;;;;;16.00;16.00;;;;;22.35;50.51;100354.45;110209;1250;20701;-80
2023/10/11 11:06:16;;;;;;;;;15.50;12.50;;;;;22.37;50.45;100355.90;110234;1251;18697;-84
2023/10/11 11:08:43;;;;;;;;;14.00;13.00;;;;;22.36;50.64;100352.73;110214;1264;18705;-78
2023/10/11 11:11:25;;;;;;;;;12.00;11.00;;;;;22.36;50.44;100349.04;110260;1250;19539;-80
2023/10/11 11:13:54;;;;;;;;;17.50;16.00;;;;;22.33;50.13;100346.95;110805;1249;22706;-79
2023/10/11 11:16:26;;;;;;;;;12.00;11.00;;;;;22.35;50.11;100340.98;111781;1264;18748;-80
2023/10/11 11:18:53;;;;;;;;;13.00;11.00;;;;;22.36;49.90;100333.20;110281;1264;19414;-81
2023/10/11 11:21:23;;;;;;;;;13.00;12.50;;;;;22.35;50.03;100329.34;110211;1265;18612;-78
2023/10/11 11:23:50;;;;;;;;;11.50;11.50;;;;;22.39;50.05;100330.34;110201;1249;21563;-80
2023/10/11 11:26:18;;;;;;;;;15.50;15.00;;;;;22.38;50.09;100333.67;110245;1264;19338;-81
2023/10/11 11:28:45;;;;;;;;;14.00;12.00;;;;;22.40;49.67;100335.29;110236;1265;18591;-79
2023/10/11 11:31:30;;;;;;;;;15.00;11.00;;;;;22.39;49.87;100325.42;111086;1250;20140;-78
2023/10/11 11:34:07;;;;;;;;;13.00;12.00;;;;;22.36;49.72;100325.57;110268;1265;19515;-78
2023/10/11 11:36:40;;;;;;;;;15.00;13.00;;;;;22.38;49.99;100320.90;110663;1264;18827;-78
2023/10/11 11:39:26;;;;;;;;;13.00;11.00;;;;;22.37;49.93;100314.70;110373;1251;20156;-81
2023/10/11 11:41:53;;;;;;;;;11.00;10.00;;;;;22.33;49.98;100317.41;110808;1264;19324;-79
2023/10/11 11:44:21;;;;;;;;;16.50;14.50;;;;;22.37;49.81;100315.58;110864;1250;20105;-78